Time;durP1;ratioP1;P1;durP2;ratioP2;P2;SDS_P1;SDS_P2;PMS_P1;PMS_P2;Temp;Humidity;BMP_temperature;BMP_pressure;BME280_temperature;BME280_humidity;BME280_pressure;Samples;Min_cycle;Max_cycle;Signal;HPM_P1;HPM_P2
2022/09/08 00:00:07;;;;;;;5.20;3.75;;;20.10;99.90;;;;;;5065961;28;20184;-34
2022/09/08 00:02:37;;;;;;;6.25;3.40;;;20.00;99.90;;;;;;5075565;28;20239;-36
2022/09/08 00:05:05;;;;;;;7.43;3.50;;;19.90;99.90;;;;;;5070451;28;20185;-34
2022/09/08 00:07:35;;;;;;;3.45;3.15;;;19.80;99.90;;;;;;5053074;28;20260;-36
2022/09/08 00:10:03;;;;;;;3.70;3.10;;;19.80;99.90;;;;;;5054958;28;20176;-33
2022/09/08 00:12:29;;;;;;;4.38;3.47;;;19.70;99.90;;;;;;5073246;28;20188;-35
2022/09/08 00:14:56;;;;;;;4.32;3.65;;;19.60;99.90;;;;;;5072243;28;20177;-35
2022/09/08 00:17:23;;;;;;;3.60;3.28;;;19.60;99.90;;;;;;5071678;28;20210;-34
2022/09/08 00:19:49;;;;;;;4.15;3.00;;;19.60;99.90;;;;;;5063043;28;20177;-36
2022/09/08 00:22:14;;;;;;;6.30;3.00;;;19.50;99.90;;;;;;5037494;28;20208;-36
2022/09/08 00:24:40;;;;;;;5.13;3.30;;;19.60;99.90;;;;;;5051975;28;20188;-36
2022/09/08 00:27:06;;;;;;;4.97;3.25;;;19.50;99.90;;;;;;5067551;28;20173;-36
2022/09/08 00:29:33;;;;;;;3.85;3.00;;;19.30;99.90;;;;;;5070419;28;20215;-34
2022/09/08 00:31:59;;;;;;;4.07;2.58;;;19.20;99.90;;;;;;5048462;28;20251;-36
2022/09/08 00:34:25;;;;;;;5.93;3.10;;;19.20;99.90;;;;;;5036174;28;20177;-36
2022/09/08 00:36:53;;;;;;;4.03;2.92;;;19.10;99.90;;;;;;5086045;28;20200;-34
2022/09/08 00:39:19;;;;;;;3.85;3.00;;;19.10;99.90;;;;;;5053752;28;20177;-34
2022/09/08 00:41:45;;;;;;;5.22;3.42;;;19.10;99.90;;;;;;5051834;28;20203;-33
2022/09/08 00:44:35;;;;;;;4.78;3.10;;;19.10;99.90;;;;;;5068854;28;20247;-36
2022/09/08 00:47:02;;;;;;;5.05;3.10;;;19.10;99.90;;;;;;5054146;28;20223;-34
2022/09/08 00:49:29;;;;;;;2.88;2.58;;;19.10;99.90;;;;;;5066822;28;20169;-34
2022/09/08 00:51:57;;;;;;;3.08;2.63;;;19.10;99.90;;;;;;5042234;28;20254;-34
2022/09/08 00:54:25;;;;;;;3.50;2.33;;;19.10;99.90;;;;;;5084299;28;20231;-34
2022/09/08 00:56:53;;;;;;;3.17;2.50;;;19.20;99.90;;;;;;5049911;28;20189;-36
2022/09/08 00:59:20;;;;;;;2.60;2.13;;;19.20;99.90;;;;;;5063368;28;20204;-35
2022/09/08 01:01:46;;;;;;;2.78;2.50;;;19.20;99.90;;;;;;5049335;28;20208;-34
2022/09/08 01:04:13;;;;;;;4.22;2.33;;;19.30;99.90;;;;;;5066382;28;20187;-36
2022/09/08 01:12:45;;;;;;;2.50;2.05;;;19.30;99.90;;;;;;5072940;28;20224;-34
2022/09/08 01:15:18;;;;;;;2.40;2.10;;;19.20;99.90;;;;;;5070419;28;20180;-34
2022/09/08 01:17:49;;;;;;;2.22;2.03;;;19.30;99.90;;;;;;5070426;28;20214;-36
2022/09/08 01:20:19;;;;;;;2.13;2.00;;;19.30;99.90;;;;;;5069502;28;20188;-34
2022/09/08 01:23:09;;;;;;;2.58;1.52;;;19.30;99.90;;;;;;5069256;28;20261;-34
2022/09/08 01:26:14;;;;;;;2.78;1.70;;;19.30;99.90;;;;;;5071636;28;20192;-37
2022/09/08 01:29:00;;;;;;;3.65;1.70;;;19.20;99.90;;;;;;5053029;28;20181;-34
2022/09/08 01:31:29;;;;;;;2.10;1.50;;;19.30;99.90;;;;;;5071801;28;20197;-36
2022/09/08 01:33:55;;;;;;;1.98;1.60;;;19.20;99.90;;;;;;5054071;28;20319;-36
2022/09/08 01:36:21;;;;;;;1.90;1.58;;;19.20;99.90;;;;;;5071454;28;20200;-36
2022/09/08 01:38:47;;;;;;;3.63;1.80;;;19.10;99.90;;;;;;5069917;28;20173;-34
2022/09/08 01:41:13;;;;;;;2.63;1.60;;;19.10;99.90;;;;;;5089184;28;20211;-35
2022/09/08 01:43:40;;;;;;;1.40;1.23;;;19.00;99.90;;;;;;5054834;28;20218;-35
2022/09/08 01:46:06;;;;;;;2.20;1.30;;;19.00;99.90;;;;;;5060437;28;20177;-36
2022/09/08 01:48:32;;;;;;;1.42;1.30;;;18.90;99.90;;;;;;5070519;28;20180;-36
2022/09/08 01:54:47;;;;;;;3.90;1.38;;;18.90;99.90;;;;;;5042416;28;20217;-36
2022/09/08 01:57:13;;;;;;;1.30;1.20;;;18.80;99.90;;;;;;5070674;28;20173;-36
2022/09/08 01:59:38;;;;;;;1.50;1.40;;;18.70;99.90;;;;;;5070869;28;20185;-34
2022/09/08 02:02:04;;;;;;;2.00;1.38;;;18.80;99.90;;;;;;5070802;28;20261;-35
2022/09/08 02:04:30;;;;;;;1.55;1.20;;;18.80;99.90;;;;;;5062098;28;20177;-34
2022/09/08 02:06:56;;;;;;;2.30;1.45;;;18.70;99.90;;;;;;5059935;28;20174;-34
2022/09/08 02:09:22;;;;;;;1.90;1.30;;;18.60;99.90;;;;;;5072427;28;20176;-33
2022/09/08 02:11:48;;;;;;;4.40;1.40;;;18.50;99.90;;;;;;5073319;28;20192;-35
2022/09/08 02:14:14;;;;;;;1.88;1.20;;;18.50;99.90;;;;;;5065214;28;20231;-34
2022/09/08 02:16:40;;;;;;;2.30;1.42;;;18.50;99.90;;;;;;5060500;28;20201;-35
2022/09/08 02:19:06;;;;;;;1.77;1.30;;;18.50;99.90;;;;;;5057761;28;20181;-36
2022/09/08 02:21:31;;;;;;;1.60;1.30;;;18.60;99.90;;;;;;5065079;28;20204;-36
2022/09/08 02:23:59;;;;;;;1.30;1.20;;;18.60;99.90;;;;;;5073882;28;20175;-37
2022/09/08 02:26:28;;;;;;;1.55;1.42;;;18.60;99.90;;;;;;5074556;28;20258;-36
2022/09/08 02:28:54;;;;;;;3.40;1.40;;;18.70;99.90;;;;;;5089718;28;20165;-35
2022/09/08 02:31:22;;;;;;;3.25;1.50;;;18.70;99.90;;;;;;5072196;28;20204;-36
2022/09/08 02:33:48;;;;;;;1.42;1.30;;;18.70;99.90;;;;;;5074801;28;20177;-34
2022/09/08 02:36:14;;;;;;;1.52;1.25;;;18.70;99.90;;;;;;5070778;28;20187;-34
2022/09/08 02:38:40;;;;;;;1.60;1.27;;;18.70;99.90;;;;;;5066284;28;20191;-36
2022/09/08 02:41:07;;;;;;;1.42;1.27;;;18.70;99.90;;;;;;5073487;28;20181;-34
2022/09/08 02:43:33;;;;;;;3.33;1.48;;;18.70;99.90;;;;;;5074089;28;20664;-35
2022/09/08 02:46:07;;;;;;;1.40;1.30;;;18.70;99.90;;;;;;5064497;28;20175;-36
2022/09/08 02:48:34;;;;;;;2.13;1.30;;;18.70;99.90;;;;;;5073339;28;20261;-34
2022/09/08 02:51:05;;;;;;;2.08;1.20;;;18.70;99.90;;;;;;5074096;28;20185;-34
2022/09/08 02:53:31;;;;;;;1.40;1.30;;;18.70;99.90;;;;;;5091067;28;20245;-34
2022/09/08 02:55:58;;;;;;;2.75;1.50;;;18.70;99.90;;;;;;5091541;28;20164;-34
2022/09/08 02:58:25;;;;;;;1.40;1.30;;;18.70;99.90;;;;;;5073245;28;20177;-37
2022/09/08 03:00:51;;;;;;;2.42;1.10;;;18.60;99.90;;;;;;5072799;28;20194;-36
2022/09/08 03:03:17;;;;;;;1.88;1.40;;;18.60;99.90;;;;;;5073311;28;20192;-34
2022/09/08 03:05:43;;;;;;;3.05;1.40;;;18.60;99.90;;;;;;5073896;28;20173;-34
2022/09/08 03:08:09;;;;;;;2.58;1.50;;;18.60;99.90;;;;;;5072744;28;20175;-34
2022/09/08 03:10:36;;;;;;;1.85;1.25;;;18.50;99.90;;;;;;5090003;28;20192;-34
2022/09/08 03:13:02;;;;;;;2.08;1.30;;;18.50;99.90;;;;;;5088715;28;20268;-36
2022/09/08 03:15:30;;;;;;;1.45;1.20;;;18.50;99.90;;;;;;5054932;28;20177;-34
2022/09/08 03:17:56;;;;;;;1.88;1.20;;;18.40;99.90;;;;;;5064216;28;20195;-34
2022/09/08 03:20:23;;;;;;;1.77;1.02;;;18.40;99.90;;;;;;5071098;28;20246;-35
2022/09/08 03:22:50;;;;;;;3.95;1.17;;;18.40;99.90;;;;;;5074762;28;20205;-34
2022/09/08 03:25:17;;;;;;;3.03;1.33;;;18.20;99.90;;;;;;5054730;28;20212;-36
2022/09/08 03:27:43;;;;;;;1.33;1.20;;;18.10;99.90;;;;;;5037327;28;20200;-34
2022/09/08 03:30:11;;;;;;;1.17;1.00;;;18.10;99.90;;;;;;5072646;28;20269;-36
2022/09/08 03:32:41;;;;;;;1.80;1.35;;;18.00;99.90;;;;;;5092074;28;20249;-34
2022/09/08 03:35:08;;;;;;;1.77;1.10;;;17.90;99.90;;;;;;5061706;28;20185;-34
2022/09/08 03:37:35;;;;;;;1.60;0.98;;;17.90;99.90;;;;;;5080185;28;20672;-34
2022/09/08 03:40:04;;;;;;;1.13;0.90;;;17.90;99.90;;;;;;5081514;28;20248;-34
2022/09/08 03:42:34;;;;;;;1.85;0.90;;;17.80;99.90;;;;;;5075895;28;20235;-34
2022/09/08 03:45:01;;;;;;;1.15;1.05;;;17.70;99.90;;;;;;5068810;28;20252;-34
2022/09/08 03:47:27;;;;;;;1.00;1.00;;;17.70;99.90;;;;;;5057893;28;20181;-36
2022/09/08 03:49:53;;;;;;;1.95;1.08;;;17.60;99.90;;;;;;5074411;28;20176;-36
2022/09/08 03:52:19;;;;;;;0.93;0.82;;;17.60;99.90;;;;;;5053555;28;20201;-34
2022/09/08 03:54:47;;;;;;;1.85;0.90;;;17.60;99.90;;;;;;5083930;28;20183;-34
2022/09/08 03:57:15;;;;;;;1.10;1.00;;;17.50;99.90;;;;;;5067773;28;20630;-36
2022/09/08 03:59:42;;;;;;;0.80;0.80;;;17.50;99.90;;;;;;5071813;28;20180;-34
2022/09/08 04:02:09;;;;;;;1.40;0.90;;;17.50;99.90;;;;;;5057426;28;20212;-36
2022/09/08 04:04:35;;;;;;;1.10;1.00;;;17.50;99.90;;;;;;5053712;28;20188;-34
2022/09/08 04:07:01;;;;;;;0.80;0.80;;;17.50;99.90;;;;;;5082287;28;20186;-34
2022/09/08 04:09:27;;;;;;;1.77;0.90;;;17.50;99.90;;;;;;5057362;28;20173;-34
2022/09/08 04:11:53;;;;;;;0.95;0.80;;;17.50;99.90;;;;;;5071346;28;20210;-34
2022/09/08 04:14:19;;;;;;;1.80;1.02;;;17.50;99.90;;;;;;5071756;28;20625;-35
2022/09/08 04:16:45;;;;;;;0.90;0.90;;;17.50;99.90;;;;;;5069784;28;20271;-34
2022/09/08 04:19:12;;;;;;;1.33;0.90;;;17.40;99.90;;;;;;5070625;28;20200;-34
2022/09/08 04:21:38;;;;;;;1.65;1.17;;;17.40;99.90;;;;;;5062631;28;20212;-35
2022/09/08 04:24:03;;;;;;;3.53;0.80;;;17.50;99.90;;;;;;5090295;28;20255;-34
2022/09/08 04:26:29;;;;;;;1.42;0.70;;;17.50;99.90;;;;;;5055803;28;20263;-34
2022/09/08 04:28:56;;;;;;;0.93;0.83;;;17.50;99.90;;;;;;5071913;28;20181;-36
2022/09/08 04:31:24;;;;;;;0.85;0.70;;;17.40;99.90;;;;;;5071219;28;20230;-36
2022/09/08 04:33:50;;;;;;;1.02;0.88;;;17.40;99.90;;;;;;5074711;28;20173;-36
2022/09/08 04:36:21;;;;;;;1.45;0.88;;;17.40;99.90;;;;;;5058203;28;20180;-35
2022/09/08 04:38:48;;;;;;;0.95;0.88;;;17.40;99.90;;;;;;5066678;28;20184;-34
2022/09/08 04:41:16;;;;;;;1.13;0.80;;;17.40;99.90;;;;;;5057712;28;20290;-36
2022/09/08 04:43:43;;;;;;;1.13;0.90;;;17.40;99.90;;;;;;5074677;28;20180;-34
2022/09/08 04:46:14;;;;;;;1.60;0.97;;;17.40;99.90;;;;;;5092532;28;20226;-34
2022/09/08 04:48:42;;;;;;;1.45;0.98;;;17.40;99.90;;;;;;5052744;28;20172;-35
2022/09/08 04:51:14;;;;;;;1.45;0.88;;;17.40;99.90;;;;;;5074186;28;20176;-34
2022/09/08 04:53:40;;;;;;;3.47;1.13;;;17.40;99.90;;;;;;5092081;28;20168;-34
2022/09/08 04:56:07;;;;;;;1.08;0.98;;;17.40;99.90;;;;;;5071781;28;20180;-36
2022/09/08 04:58:36;;;;;;;2.65;1.00;;;17.30;99.90;;;;;;5088848;28;20165;-36
2022/09/08 05:01:15;;;;;;;0.87;0.87;;;17.30;99.90;;;;;;5073679;28;20212;-34
2022/09/08 05:03:41;;;;;;;1.55;1.00;;;17.30;99.90;;;;;;5064526;28;20185;-34
2022/09/08 05:06:13;;;;;;;1.92;0.90;;;17.30;99.90;;;;;;5057660;28;20183;-36
2022/09/08 05:08:42;;;;;;;1.58;1.20;;;17.30;99.90;;;;;;5061519;28;20192;-35
2022/09/08 05:11:09;;;;;;;1.10;1.00;;;17.20;99.90;;;;;;5057095;28;20180;-35
2022/09/08 05:13:35;;;;;;;0.80;0.80;;;17.20;99.90;;;;;;5074116;28;20636;-34
2022/09/08 05:16:19;;;;;;;1.13;1.03;;;17.20;99.90;;;;;;5091924;28;20180;-34
2022/09/08 05:18:50;;;;;;;1.63;0.83;;;17.20;99.90;;;;;;5058216;28;20187;-35
2022/09/08 05:21:17;;;;;;;1.43;1.10;;;17.10;99.90;;;;;;5072549;28;20189;-33
2022/09/08 05:23:43;;;;;;;1.27;1.00;;;17.10;99.90;;;;;;5091763;28;20200;-33
2022/09/08 05:26:14;;;;;;;1.30;1.10;;;17.10;99.90;;;;;;5073838;28;20184;-34
2022/09/08 05:28:41;;;;;;;2.07;1.40;;;17.10;99.90;;;;;;5074224;28;20175;-33
2022/09/08 05:31:09;;;;;;;1.55;1.10;;;17.10;99.90;;;;;;5073892;28;20262;-36
2022/09/08 05:33:35;;;;;;;1.52;1.08;;;17.10;99.90;;;;;;5073945;28;20184;-33
2022/09/08 05:36:01;;;;;;;1.50;1.20;;;17.10;99.90;;;;;;5073735;28;20169;-35
2022/09/08 05:38:27;;;;;;;1.98;1.20;;;17.10;99.90;;;;;;5073519;28;20190;-33
2022/09/08 05:40:53;;;;;;;3.63;1.20;;;17.10;99.90;;;;;;5051056;28;20287;-35
2022/09/08 05:43:19;;;;;;;1.30;1.08;;;17.10;99.90;;;;;;5048100;28;20204;-33
2022/09/08 05:45:47;;;;;;;2.53;1.00;;;17.10;99.90;;;;;;5054889;28;20242;-33
2022/09/08 05:48:14;;;;;;;1.77;1.20;;;17.10;99.90;;;;;;5074749;28;20283;-33
2022/09/08 05:50:44;;;;;;;2.40;1.13;;;17.10;99.90;;;;;;5058560;28;20183;-34
2022/09/08 05:53:11;;;;;;;2.97;1.10;;;17.10;99.90;;;;;;5057877;28;20223;-35
2022/09/08 05:55:37;;;;;;;1.90;1.20;;;17.10;99.90;;;;;;5057772;28;20184;-34
2022/09/08 05:58:03;;;;;;;2.40;1.10;;;17.00;99.90;;;;;;5074728;28;20180;-36
2022/09/08 06:00:29;;;;;;;1.25;1.15;;;17.00;99.90;;;;;;5065558;28;20180;-34
2022/09/08 06:02:55;;;;;;;1.10;1.00;;;17.00;99.90;;;;;;5060203;28;20208;-34
2022/09/08 06:05:22;;;;;;;2.67;1.37;;;17.00;99.90;;;;;;5077540;28;20183;-34
2022/09/08 06:07:54;;;;;;;2.80;1.20;;;16.90;99.90;;;;;;5076828;28;20244;-34
2022/09/08 06:10:22;;;;;;;2.60;0.80;;;16.90;99.90;;;;;;5077451;28;20749;-34
2022/09/08 06:12:48;;;;;;;1.73;1.00;;;16.90;99.90;;;;;;5072563;28;20205;-34
2022/09/08 06:15:13;;;;;;;1.87;0.97;;;16.90;99.90;;;;;;5058523;28;20177;-36
2022/09/08 06:17:39;;;;;;;1.13;0.97;;;16.90;99.90;;;;;;5090396;28;20206;-34
2022/09/08 06:20:06;;;;;;;2.40;1.00;;;16.90;99.90;;;;;;5038781;28;20173;-36
2022/09/08 06:22:33;;;;;;;1.70;1.20;;;16.90;99.90;;;;;;5043639;28;20246;-34
2022/09/08 06:24:59;;;;;;;1.47;1.23;;;16.90;99.90;;;;;;5064991;28;20173;-34
2022/09/08 06:27:34;;;;;;;3.47;2.33;;;16.90;99.90;;;;;;5078181;28;20169;-36
2022/09/08 06:30:03;;;;;;;3.27;2.00;;;16.90;99.90;;;;;;5056766;28;20177;-35
2022/09/08 06:32:56;;;;;;;2.53;2.13;;;16.90;99.90;;;;;;5091053;28;20192;-36
2022/09/08 06:35:25;;;;;;;3.47;2.20;;;16.80;99.90;;;;;;5068849;28;20188;-36
2022/09/08 06:38:04;;;;;;;3.27;2.37;;;16.80;99.90;;;;;;5058267;28;20266;-35
2022/09/08 06:41:03;;;;;;;4.03;2.10;;;16.70;99.90;;;;;;5072280;28;20257;-34
2022/09/08 06:43:42;;;;;;;2.13;1.53;;;16.70;99.90;;;;;;5065063;28;20193;-35
2022/09/08 06:46:31;;;;;;;2.67;1.50;;;16.70;99.90;;;;;;5074105;28;20275;-36
2022/09/08 06:48:59;;;;;;;2.30;1.00;;;16.70;99.90;;;;;;5092339;28;20182;-34
2022/09/08 06:51:55;;;;;;;1.10;1.00;;;16.70;99.90;;;;;;5064681;28;20193;-34
2022/09/08 06:54:32;;;;;;;1.20;1.00;;;16.70;99.90;;;;;;5052988;28;20173;-34
2022/09/08 06:57:27;;;;;;;1.47;0.90;;;16.60;99.90;;;;;;5073225;28;20177;-35
2022/09/08 07:00:10;;;;;;;2.27;1.00;;;16.70;99.90;;;;;;5037966;28;20239;-36
2022/09/08 07:02:48;;;;;;;2.20;1.07;;;16.60;99.90;;;;;;5077433;28;20215;-36
2022/09/08 07:05:32;;;;;;;2.10;0.93;;;16.60;99.90;;;;;;5074621;28;20260;-34
2022/09/08 07:08:11;;;;;;;2.53;0.90;;;16.60;99.90;;;;;;5055830;28;20697;-35
2022/09/08 07:10:57;;;;;;;1.40;1.00;;;16.60;99.90;;;;;;5068486;28;20242;-36
2022/09/08 07:13:59;;;;;;;1.13;0.83;;;16.60;99.90;;;;;;5072055;28;20194;-36
2022/09/08 07:16:42;;;;;;;1.53;0.97;;;16.70;99.90;;;;;;5073518;28;20176;-34
2022/09/08 07:19:21;;;;;;;2.60;0.80;;;16.80;99.90;;;;;;5057077;28;20184;-34
2022/09/08 07:22:11;;;;;;;3.63;0.90;;;16.90;99.90;;;;;;5057034;28;20354;-34
2022/09/08 07:24:41;;;;;;;2.83;0.70;;;16.90;99.90;;;;;;5057386;28;20274;-34
2022/09/08 07:27:12;;;;;;;0.88;0.88;;;16.90;99.90;;;;;;5053892;28;20173;-36
2022/09/08 07:29:50;;;;;;;1.25;0.90;;;16.90;99.90;;;;;;5057581;28;20284;-36
2022/09/08 07:32:36;;;;;;;2.10;0.90;;;17.00;99.90;;;;;;5060151;28;20203;-36
2022/09/08 07:35:15;;;;;;;1.13;0.80;;;17.10;99.90;;;;;;5062538;28;20192;-36
2022/09/08 07:37:47;;;;;;;1.67;0.80;;;17.10;99.90;;;;;;5077544;28;20180;-34
2022/09/08 07:40:37;;;;;;;1.67;1.00;;;17.10;99.90;;;;;;5059029;28;20199;-35
2022/09/08 07:43:10;;;;;;;1.17;0.90;;;17.20;99.90;;;;;;5083235;28;20305;-36
2022/09/08 07:45:48;;;;;;;0.80;0.80;;;17.20;99.90;;;;;;5053494;28;20169;-34
2022/09/08 07:48:32;;;;;;;1.53;0.80;;;17.30;99.90;;;;;;5065513;28;20183;-35
2022/09/08 07:51:04;;;;;;;1.15;0.90;;;17.50;99.90;;;;;;5066887;28;20181;-34
2022/09/08 07:53:48;;;;;;;2.95;1.10;;;17.60;99.90;;;;;;5070513;28;20169;-35
2022/09/08 07:56:36;;;;;;;0.93;0.90;;;17.80;99.90;;;;;;5054944;28;20210;-36
2022/09/08 07:59:17;;;;;;;1.45;0.90;;;18.10;99.90;;;;;;5070361;28;20211;-36
2022/09/08 08:01:46;;;;;;;1.73;1.20;;;18.40;99.90;;;;;;5067745;28;20279;-34
2022/09/08 08:04:33;;;;;;;2.92;1.13;;;18.60;99.90;;;;;;5091965;28;20169;-36
2022/09/08 08:07:04;;;;;;;1.25;1.08;;;18.80;99.90;;;;;;5060203;28;20169;-35
2022/09/08 08:09:54;;;;;;;1.45;0.90;;;18.80;99.90;;;;;;5053149;28;20170;-35
2022/09/08 08:12:29;;;;;;;1.63;1.17;;;18.90;99.90;;;;;;5077025;28;20207;-34
2022/09/08 08:15:29;;;;;;;2.20;1.13;;;18.80;99.90;;;;;;5073213;28;20267;-34
2022/09/08 08:18:15;;;;;;;1.73;1.02;;;18.70;99.90;;;;;;5054599;28;20181;-37
2022/09/08 08:20:51;;;;;;;1.20;1.10;;;18.60;99.90;;;;;;5053357;28;20181;-35
2022/09/08 08:23:20;;;;;;;2.50;1.20;;;18.50;99.90;;;;;;5041047;28;20204;-34
2022/09/08 08:26:07;;;;;;;2.63;1.67;;;18.60;99.90;;;;;;5072425;28;20173;-36
2022/09/08 08:28:41;;;;;;;2.65;1.02;;;18.60;99.90;;;;;;5054263;28;20173;-35
2022/09/08 08:31:24;;;;;;;3.30;1.00;;;18.70;99.90;;;;;;5069722;28;20226;-36
2022/09/08 08:34:30;;;;;;;1.58;1.20;;;18.70;99.90;;;;;;5052226;28;20255;-35
2022/09/08 08:37:01;;;;;;;3.15;1.20;;;18.60;99.90;;;;;;5071553;28;20184;-36
2022/09/08 08:39:28;;;;;;;2.58;1.10;;;18.50;99.90;;;;;;5060935;28;20185;-34
2022/09/08 08:42:17;;;;;;;1.67;1.30;;;18.50;99.90;;;;;;5067899;28;20229;-36
2022/09/08 08:45:11;;;;;;;2.70;1.50;;;18.40;99.90;;;;;;5067987;28;20181;-35
2022/09/08 08:47:58;;;;;;;3.15;1.20;;;18.30;99.90;;;;;;5054310;28;20177;-36
2022/09/08 08:50:50;;;;;;;1.88;1.30;;;18.10;99.90;;;;;;5067403;28;20258;-36
2022/09/08 08:53:22;;;;;;;1.23;1.13;;;18.00;99.90;;;;;;5066742;28;20210;-34
2022/09/08 08:56:12;;;;;;;2.55;1.10;;;17.90;99.90;;;;;;5069882;28;20183;-34
2022/09/08 08:58:59;;;;;;;1.40;1.10;;;17.90;99.90;;;;;;5069472;28;20233;-37
2022/09/08 09:01:34;;;;;;;2.35;1.10;;;17.90;99.90;;;;;;5051368;28;20258;-34
2022/09/08 09:04:31;;;;;;;4.10;1.25;;;17.90;99.90;;;;;;5086600;28;20180;-36
2022/09/08 09:07:35;;;;;;;2.17;1.50;;;18.00;99.90;;;;;;5070475;28;20214;-35
2022/09/08 09:10:26;;;;;;;2.20;1.33;;;18.00;99.90;;;;;;5054034;28;20209;-36
2022/09/08 09:13:20;;;;;;;2.80;1.38;;;18.00;99.90;;;;;;5069214;28;20219;-34
2022/09/08 09:16:01;;;;;;;1.40;1.23;;;18.10;99.90;;;;;;5081698;28;20199;-36
2022/09/08 09:18:40;;;;;;;2.13;1.15;;;18.10;99.90;;;;;;5071533;28;20183;-34
2022/09/08 09:21:22;;;;;;;2.10;1.50;;;18.00;99.90;;;;;;5057097;28;20184;-34
2022/09/08 09:24:21;;;;;;;2.70;2.50;;;18.00;99.90;;;;;;5057510;28;20185;-34
2022/09/08 09:26:51;;;;;;;1.60;1.50;;;18.00;99.90;;;;;;5056898;28;20230;-34
2022/09/08 09:29:22;;;;;;;1.92;1.65;;;18.10;99.90;;;;;;5073060;28;20176;-34
2022/09/08 09:31:54;;;;;;;3.28;1.52;;;18.20;99.90;;;;;;5073294;28;20264;-34
2022/09/08 09:34:38;;;;;;;2.50;1.38;;;18.30;99.90;;;;;;5057001;28;20212;-36
2022/09/08 09:37:24;;;;;;;1.60;1.20;;;18.40;99.90;;;;;;5047996;28;20176;-37
2022/09/08 09:40:26;;;;;;;1.90;1.30;;;18.50;99.90;;;;;;5072205;28;20177;-34
2022/09/08 09:43:18;;;;;;;1.77;1.23;;;18.70;99.90;;;;;;5072191;28;20207;-35
2022/09/08 09:46:08;;;;;;;1.38;1.27;;;19.10;99.90;;;;;;5089434;28;20181;-34
2022/09/08 09:48:53;;;;;;;1.58;1.15;;;19.40;99.90;;;;;;5068002;28;20196;-35
2022/09/08 09:51:25;;;;;;;1.92;1.30;;;19.60;99.90;;;;;;5073437;28;20227;-36
2022/09/08 09:54:18;;;;;;;1.75;1.13;;;19.90;99.90;;;;;;5073967;28;20641;-35
2022/09/08 09:57:29;;;;;;;1.73;1.00;;;20.10;99.90;;;;;;5072385;28;20188;-36
2022/09/08 10:00:21;;;;;;;1.85;1.13;;;20.30;99.90;;;;;;5079965;28;20185;-34
2022/09/08 10:03:10;;;;;;;1.52;1.17;;;20.50;99.90;;;;;;5072168;28;20353;-34
2022/09/08 10:05:57;;;;;;;2.90;1.10;;;20.50;99.90;;;;;;5073177;28;20207;-34
2022/09/08 10:08:32;;;;;;;2.55;1.25;;;20.70;99.90;;;;;;5086085;28;20180;-36
2022/09/08 10:11:29;;;;;;;1.00;1.00;;;20.70;99.90;;;;;;5071949;28;20177;-37
2022/09/08 10:14:22;;;;;;;2.85;1.10;;;20.80;99.90;;;;;;5088372;28;20172;-36
2022/09/08 10:16:54;;;;;;;3.67;1.10;;;20.80;99.90;;;;;;5072546;28;20173;-34
2022/09/08 10:19:26;;;;;;;1.73;1.08;;;21.00;99.90;;;;;;5057617;28;20189;-34
2022/09/08 10:22:24;;;;;;;1.65;1.00;;;21.00;99.90;;;;;;5071532;28;20208;-34
2022/09/08 10:25:22;;;;;;;1.27;0.93;;;21.10;99.90;;;;;;5074096;28;20178;-36
2022/09/08 10:28:12;;;;;;;2.88;1.00;;;21.30;99.90;;;;;;5057121;28;20177;-36
2022/09/08 10:31:05;;;;;;;2.28;0.90;;;21.40;99.90;;;;;;5053627;28;20173;-36
2022/09/08 10:33:59;;;;;;;1.63;0.98;;;21.20;99.90;;;;;;5073492;28;20212;-36
2022/09/08 10:37:00;;;;;;;1.92;0.70;;;21.10;99.90;;;;;;5072519;28;20176;-36
2022/09/08 10:39:43;;;;;;;1.45;0.82;;;21.20;99.90;;;;;;5075446;28;20186;-34
2022/09/08 10:42:44;;;;;;;2.33;0.90;;;21.40;99.90;;;;;;5055815;28;20201;-34
2022/09/08 10:45:16;;;;;;;1.58;0.80;;;21.40;99.90;;;;;;5090232;28;20176;-35
2022/09/08 10:48:10;;;;;;;0.82;0.80;;;21.30;99.90;;;;;;5089137;28;20165;-34
2022/09/08 10:50:51;;;;;;;0.70;0.70;;;21.30;99.90;;;;;;5073688;28;20176;-34
2022/09/08 10:53:51;;;;;;;1.05;0.70;;;21.30;99.90;;;;;;5067624;28;20202;-34
2022/09/08 10:56:27;;;;;;;0.60;0.60;;;21.20;99.90;;;;;;5075886;28;20173;-34
2022/09/08 10:59:18;;;;;;;1.63;0.80;;;21.20;99.90;;;;;;5055578;28;20184;-36
2022/09/08 11:02:09;;;;;;;1.17;0.80;;;21.10;99.90;;;;;;5086021;28;20348;-36
2022/09/08 11:05:05;;;;;;;2.08;0.95;;;21.00;99.90;;;;;;5058895;28;20273;-36
2022/09/08 11:07:39;;;;;;;1.42;0.80;;;20.90;99.90;;;;;;5052376;28;20220;-36
2022/09/08 11:10:26;;;;;;;1.70;0.80;;;20.90;99.90;;;;;;5071490;28;20177;-36
2022/09/08 11:13:17;;;;;;;1.13;0.90;;;21.10;99.90;;;;;;5052741;28;20201;-34
2022/09/08 11:16:01;;;;;;;0.90;0.70;;;21.30;99.90;;;;;;5065222;28;20180;-35
2022/09/08 11:18:49;;;;;;;2.25;0.82;;;21.50;99.90;;;;;;5071551;28;20206;-34
2022/09/08 11:21:29;;;;;;;2.70;0.88;;;21.70;99.90;;;;;;5067713;28;20197;-36
2022/09/08 11:24:07;;;;;;;0.70;0.70;;;21.70;99.90;;;;;;5074273;28;20230;-36
2022/09/08 11:26:54;;;;;;;1.10;1.00;;;21.80;99.90;;;;;;5055044;28;20183;-35
2022/09/08 11:29:35;;;;;;;1.95;0.95;;;21.80;99.90;;;;;;5082821;28;20169;-34
2022/09/08 11:32:32;;;;;;;2.75;1.00;;;21.70;99.90;;;;;;5087775;28;20192;-35
2022/09/08 11:35:22;;;;;;;2.42;0.80;;;21.70;99.90;;;;;;5056627;28;20181;-36
2022/09/08 11:38:13;;;;;;;2.72;0.80;;;22.00;99.90;;;;;;5090598;28;20180;-36
2022/09/08 11:40:57;;;;;;;2.15;0.70;;;22.40;99.90;;;;;;5073417;28;20192;-35
2022/09/08 11:43:47;;;;;;;1.02;0.70;;;22.70;99.90;;;;;;5088801;28;20196;-34
2022/09/08 11:46:42;;;;;;;0.93;0.80;;;22.90;99.90;;;;;;5086142;28;20173;-34
2022/09/08 11:49:36;;;;;;;1.73;0.80;;;23.30;99.90;;;;;;5071176;28;20180;-36
2022/09/08 11:52:32;;;;;;;2.45;0.80;;;23.60;99.90;;;;;;5060679;28;20286;-36
2022/09/08 11:55:07;;;;;;;0.95;0.80;;;23.90;99.90;;;;;;5072044;28;20634;-36
2022/09/08 11:57:47;;;;;;;2.05;0.98;;;23.90;99.90;;;;;;5085924;28;20276;-35
2022/09/08 12:00:37;;;;;;;1.95;0.80;;;23.80;99.90;;;;;;5053888;28;20180;-36
2022/09/08 12:03:30;;;;;;;1.13;0.70;;;23.90;99.90;;;;;;5054210;28;20231;-34
2022/09/08 12:06:17;;;;;;;1.08;0.75;;;24.00;99.90;;;;;;5054520;28;20189;-35
2022/09/08 12:08:46;;;;;;;2.38;0.90;;;24.10;99.90;;;;;;5069915;28;20228;-35
2022/09/08 12:12:02;;;;;;;3.83;1.15;;;24.20;99.90;;;;;;5070260;28;20719;-37
2022/09/08 12:15:11;;;;;;;2.05;0.70;;;24.00;99.90;;;;;;5052870;28;20329;-35
2022/09/08 12:18:10;;;;;;;1.20;0.90;;;23.90;99.90;;;;;;5067376;28;20255;-36
2022/09/08 12:20:36;;;;;;;2.97;1.10;;;23.80;99.90;;;;;;5071548;28;20185;-36
2022/09/08 12:23:23;;;;;;;3.65;1.00;;;23.70;99.90;;;;;;5059009;28;20215;-35
2022/09/08 12:26:06;;;;;;;1.02;0.90;;;23.80;99.90;;;;;;5091419;28;20263;-35
2022/09/08 12:28:51;;;;;;;2.03;1.00;;;24.10;99.90;;;;;;5072347;28;20168;-37
2022/09/08 12:31:34;;;;;;;1.63;0.90;;;24.00;99.90;;;;;;5088298;28;20201;-35
2022/09/08 12:34:22;;;;;;;2.15;0.90;;;24.10;99.90;;;;;;5091528;28;20259;-35
2022/09/08 12:37:04;;;;;;;2.13;0.70;;;24.20;99.90;;;;;;5090304;28;20203;-34
2022/09/08 12:39:52;;;;;;;1.60;0.70;;;24.50;99.90;;;;;;5055712;28;20172;-36
2022/09/08 12:42:24;;;;;;;3.35;0.95;;;24.40;99.90;;;;;;5055750;28;20734;-36
2022/09/08 12:45:15;;;;;;;1.90;0.70;;;24.40;99.90;;;;;;5070942;28;20238;-36
2022/09/08 12:48:24;;;;;;;2.30;1.02;;;24.70;99.90;;;;;;5065708;28;20192;-35
2022/09/08 12:51:00;;;;;;;2.25;0.77;;;24.90;99.90;;;;;;5025754;28;20192;-36
2022/09/08 12:53:47;;;;;;;0.73;0.70;;;25.00;99.90;;;;;;5035815;28;20180;-34
2022/09/08 12:56:35;;;;;;;1.45;0.70;;;25.10;99.90;;;;;;5048318;28;20248;-36
2022/09/08 12:59:28;;;;;;;3.25;1.00;;;25.30;99.90;;;;;;5070731;28;20191;-34
2022/09/08 13:02:18;;;;;;;1.52;0.82;;;25.10;99.90;;;;;;5060744;28;20292;-36
2022/09/08 13:05:07;;;;;;;2.17;0.80;;;24.70;99.90;;;;;;5069643;28;20205;-36
2022/09/08 13:07:48;;;;;;;1.48;0.65;;;24.40;99.90;;;;;;5036076;28;20189;-35
2022/09/08 13:10:20;;;;;;;2.15;1.10;;;24.60;99.90;;;;;;5052669;28;20222;-35
2022/09/08 13:13:05;;;;;;;2.05;1.00;;;24.90;99.90;;;;;;5052367;28;20245;-34
2022/09/08 13:15:41;;;;;;;2.25;0.90;;;24.90;99.90;;;;;;5070014;28;20207;-36
2022/09/08 13:18:07;;;;;;;1.35;0.82;;;25.00;99.90;;;;;;5063638;28;20184;-35
2022/09/08 13:20:41;;;;;;;1.48;0.80;;;25.00;99.90;;;;;;5072390;28;20191;-35
2022/09/08 13:23:16;;;;;;;3.20;1.00;;;24.80;99.90;;;;;;5070503;28;20257;-35
2022/09/08 13:25:44;;;;;;;2.28;1.00;;;24.40;99.90;;;;;;5055110;28;20178;-36
2022/09/08 13:28:38;;;;;;;1.55;0.70;;;24.20;99.90;;;;;;5072304;28;20172;-36
2022/09/08 13:31:10;;;;;;;0.95;0.70;;;23.90;99.90;;;;;;5090635;28;20547;-35
2022/09/08 13:33:54;;;;;;;1.05;0.60;;;23.60;99.90;;;;;;5090057;28;20202;-35
2022/09/08 13:36:53;;;;;;;2.15;0.70;;;23.40;99.90;;;;;;5036915;28;20173;-34
2022/09/08 13:39:22;;;;;;;2.45;0.88;;;23.20;99.90;;;;;;5053667;28;20181;-34
2022/09/08 13:42:06;;;;;;;2.20;0.75;;;23.00;99.90;;;;;;5053396;28;20205;-35
2022/09/08 13:45:19;;;;;;;2.00;0.70;;;23.10;99.90;;;;;;5052254;28;20177;-34